KMTN/MTN METAR and TAF weather

Enter ICAO airport designator
Station Type Date Time Source
KMTN METAR 2019/06/16 19:45 UTC NOAA

KMTN 161945Z 16006KT 10SM SCT050 SCT070 BKN090 27/22 A2987


Station Type Date Time Source
KMTN Decoded METAR 2019/06/16 19:45 UTC NOAA

Baltimore / Martin, MD, United States (KMTN) 39-20N 076-25W
Jun 16, 2019 - 03:45 PM EDT / 2019.06.16 1945 UTC
Wind: from the SSE (160 degrees) at 7 MPH (6 KT):0
Visibility: 10 mile(s):0
Sky conditions: mostly cloudy
Temperature: 80 F (27 C)
Dew Point: 71 F (22 C)
Relative Humidity: 74%
Pressure (altimeter): 29.87 in. Hg (1011 hPa)
ob: KMTN 161945Z 16006KT 10SM SCT050 SCT070 BKN090 27/22 A2987
cycle: 20

Station Type Date Time Source
KMTN TAF 2019/06/16 18:28 UTC NOAA

TAF KMTN 161725Z 1618/1718 18010KT P6SM SCT050 BKN080
FM162000 20010KT P6SM VCTS SCT060CB BKN080
FM162100 22010KT 6SM TSRA SCT040CB OVC045
FM170000 22007KT 6SM -SHRA VCTS SCT040CB OVC045
FM170300 21005KT P6SM OVC050

Example: see airport list